createdAt,value
2022-12-01T00:03:30.133Z,4.30
2022-12-01T00:08:34.570Z,4.30
2022-12-01T00:13:37.969Z,4.30
2022-12-01T00:18:40.960Z,4.30
2022-12-01T00:23:47.309Z,4.20
2022-12-01T00:28:56.876Z,4.10
2022-12-01T00:33:59.724Z,4.00
2022-12-01T00:39:02.755Z,3.80
2022-12-01T00:44:05.834Z,3.60
2022-12-01T00:49:12.796Z,3.40
2022-12-01T00:54:15.679Z,3.20
2022-12-01T00:59:18.669Z,3.00
2022-12-01T01:04:21.725Z,2.90
2022-12-01T01:09:25.996Z,2.70
2022-12-01T01:14:28.945Z,2.60
2022-12-01T01:19:31.850Z,2.40
2022-12-01T01:24:34.973Z,2.30
2022-12-01T01:29:37.924Z,2.20
2022-12-01T01:34:40.824Z,2.10
2022-12-01T01:39:43.650Z,2.00
2022-12-01T01:44:58.592Z,1.90
2022-12-01T01:50:09.175Z,1.80
2022-12-01T01:55:13.747Z,1.80
2022-12-01T02:00:20.514Z,1.70
2022-12-01T02:05:31.269Z,1.70
2022-12-01T02:11:14.349Z,1.70
2022-12-01T02:16:55.536Z,1.60
2022-12-01T02:22:41.960Z,1.50
2022-12-01T02:28:14.568Z,1.50
2022-12-01T02:33:31.569Z,1.40
2022-12-01T02:38:40.074Z,1.30
2022-12-01T02:44:30.443Z,1.20
2022-12-01T02:49:40.331Z,1.20
2022-12-01T02:54:48.480Z,1.10
2022-12-01T02:59:55.307Z,1.00
2022-12-01T03:05:09.716Z,1.00
2022-12-01T03:10:43.757Z,0.90
2022-12-01T03:16:20.304Z,0.90
2022-12-01T03:21:36.403Z,0.80
2022-12-01T03:26:44.231Z,0.80
2022-12-01T03:32:01.797Z,0.80
2022-12-01T03:37:21.832Z,0.70
2022-12-01T03:42:36.904Z,0.70
2022-12-01T03:47:40.557Z,0.60
2022-12-01T03:53:06.663Z,0.60
2022-12-01T03:58:23.576Z,0.50
2022-12-01T04:03:27.042Z,0.50
2022-12-01T04:08:30.779Z,0.50
2022-12-01T04:13:34.128Z,0.50
2022-12-01T04:18:37.023Z,0.50
2022-12-01T04:23:58.088Z,0.50
2022-12-01T04:29:04.173Z,0.40
2022-12-01T04:34:09.419Z,0.50
2022-12-01T04:39:12.303Z,0.50
2022-12-01T04:44:15.472Z,0.50
2022-12-01T04:49:19.357Z,0.40
2022-12-01T04:54:22.422Z,0.40
2022-12-01T04:59:25.267Z,0.40
2022-12-01T05:04:28.047Z,0.30
2022-12-01T05:09:30.946Z,0.30
2022-12-01T05:14:33.813Z,0.20
2022-12-01T05:19:54.972Z,0.20
2022-12-01T05:24:57.724Z,0.20
2022-12-01T05:30:00.590Z,0.10
2022-12-01T05:35:03.570Z,0.10
2022-12-01T05:40:07.583Z,0.00
2022-12-01T05:45:10.922Z,0.00
2022-12-01T05:50:14.005Z,-0.10
2022-12-01T05:55:17.258Z,-0.10
2022-12-01T06:00:20.882Z,-0.10
2022-12-01T06:05:24.089Z,-0.10
2022-12-01T06:10:27.084Z,-0.10
2022-12-01T06:15:30.605Z,-0.10
2022-12-01T06:20:33.392Z,-0.10
2022-12-01T06:25:36.327Z,-0.10
2022-12-01T06:30:39.220Z,-0.10
2022-12-01T06:35:42.192Z,0.00
2022-12-01T06:40:45.154Z,0.00
2022-12-01T06:45:47.974Z,0.10
2022-12-01T06:50:50.912Z,0.20
2022-12-01T06:55:54.360Z,0.30
2022-12-01T07:00:58.917Z,0.40
2022-12-01T07:06:03.472Z,0.50
2022-12-01T07:11:12.539Z,0.60
2022-12-01T07:16:16.196Z,0.80
2022-12-01T07:21:19.220Z,1.10
2022-12-01T07:26:22.723Z,1.30
2022-12-01T07:31:25.642Z,1.60
2022-12-01T07:36:28.526Z,1.80
2022-12-01T07:41:31.486Z,2.00
2022-12-01T07:46:34.205Z,2.10
2022-12-01T07:51:37.114Z,2.30
2022-12-01T07:56:40.965Z,2.50
2022-12-01T08:01:45.080Z,2.90
2022-12-01T08:06:48.076Z,3.30
2022-12-01T08:11:50.971Z,3.70
2022-12-01T08:16:54.293Z,4.20
2022-12-01T08:21:57.531Z,4.70
2022-12-01T08:27:00.473Z,5.30
2022-12-01T08:32:03.202Z,5.80
2022-12-01T08:37:06.149Z,6.10
2022-12-01T08:42:09.047Z,6.40
2022-12-01T08:47:15.730Z,6.70
2022-12-01T08:52:22.282Z,6.80
2022-12-01T08:57:25.111Z,6.60
2022-12-01T09:02:28.279Z,6.30
2022-12-01T09:07:31.448Z,6.20
2022-12-01T09:12:34.604Z,6.60
2022-12-01T09:17:37.383Z,7.30
2022-12-01T09:22:40.272Z,8.30
2022-12-01T09:27:43.446Z,9.10
2022-12-01T09:32:46.338Z,9.80
2022-12-01T09:37:49.319Z,10.10
2022-12-01T09:42:52.240Z,10.10
2022-12-01T09:47:59.767Z,9.80
2022-12-01T09:53:09.218Z,9.30
2022-12-01T09:58:23.083Z,8.80
2022-12-01T10:03:48.324Z,8.50
2022-12-01T10:09:16.617Z,8.30
2022-12-01T10:14:22.122Z,8.10
2022-12-01T10:19:52.520Z,8.00
2022-12-01T10:25:22.942Z,8.00
2022-12-01T10:30:26.359Z,7.90
2022-12-01T10:35:37.868Z,7.90
2022-12-01T10:40:42.534Z,8.00
2022-12-01T10:45:45.700Z,8.50
2022-12-01T10:50:57.524Z,8.90
2022-12-01T10:56:18.764Z,9.20
2022-12-01T11:01:34.707Z,9.40
2022-12-01T11:06:38.088Z,9.50
2022-12-01T11:11:41.321Z,9.40
2022-12-01T11:16:47.855Z,9.30
2022-12-01T11:22:19.973Z,9.30
2022-12-01T11:27:35.078Z,9.20
2022-12-01T11:32:40.112Z,9.00
2022-12-01T11:38:27.824Z,8.90
2022-12-01T11:43:35.909Z,8.70
2022-12-01T11:48:39.136Z,8.60
2022-12-01T11:53:44.308Z,8.40
2022-12-01T11:58:50.470Z,8.30
2022-12-01T12:04:27.371Z,8.20
2022-12-01T12:09:45.591Z,8.20
2022-12-01T12:15:54.105Z,8.30
2022-12-01T12:21:34.214Z,8.30
2022-12-01T12:26:59.112Z,8.40
2022-12-01T12:32:23.641Z,8.40
2022-12-01T12:38:09.158Z,8.40
2022-12-01T12:43:41.990Z,8.30
2022-12-01T12:49:19.689Z,8.30
2022-12-01T12:55:16.736Z,8.30
2022-12-01T13:00:26.029Z,8.30
2022-12-01T13:05:50.158Z,8.20
2022-12-01T13:10:58.171Z,8.30
2022-12-01T13:16:04.854Z,8.30
2022-12-01T13:21:16.027Z,8.20
2022-12-01T13:26:22.373Z,8.20
2022-12-01T13:31:25.679Z,8.10
2022-12-01T13:36:46.985Z,8.00
2022-12-01T13:42:20.860Z,7.90
2022-12-01T13:47:46.987Z,7.90
2022-12-01T13:52:50.923Z,7.80
2022-12-01T13:57:56.745Z,7.70
2022-12-01T14:03:19.533Z,7.60
2022-12-01T14:08:28.466Z,7.50
2022-12-01T14:13:48.589Z,7.30
2022-12-01T14:18:58.950Z,7.10
2022-12-01T14:24:06.602Z,6.90
2022-12-01T14:29:27.196Z,6.70
2022-12-01T14:34:34.953Z,6.40
2022-12-01T14:39:42.976Z,6.20
2022-12-01T14:44:49.725Z,6.00
2022-12-01T14:50:02.198Z,5.90
2022-12-01T14:55:21.996Z,5.70
2022-12-01T15:00:25.474Z,5.50
2022-12-01T15:05:31.444Z,5.30
2022-12-01T15:10:35.491Z,5.20
2022-12-01T15:15:49.460Z,5.10
2022-12-01T15:21:25.894Z,5.00
2022-12-01T15:26:39.318Z,4.90
2022-12-01T15:31:47.189Z,4.80
2022-12-01T15:36:52.505Z,4.60
2022-12-01T15:41:55.785Z,4.70
2022-12-01T15:46:58.767Z,4.60
2022-12-01T15:52:12.617Z,4.60
2022-12-01T15:57:21.890Z,4.40
2022-12-01T16:02:33.560Z,4.40
2022-12-01T16:08:11.996Z,4.30
2022-12-01T16:13:48.153Z,4.30
2022-12-01T16:19:02.373Z,4.20
2022-12-01T16:24:06.711Z,4.20
2022-12-01T16:29:20.879Z,4.20
2022-12-01T16:34:45.333Z,4.10
2022-12-01T16:39:48.529Z,4.10
2022-12-01T16:44:52.884Z,4.10
2022-12-01T16:49:56.032Z,4.10
2022-12-01T16:54:58.970Z,4.00
2022-12-01T17:00:02.233Z,4.00
2022-12-01T17:05:10.382Z,3.90
2022-12-01T17:10:13.597Z,3.80
2022-12-01T17:15:17.012Z,3.70
2022-12-01T17:20:20.142Z,3.60
2022-12-01T17:25:23.064Z,3.50
2022-12-01T17:30:25.980Z,3.40
2022-12-01T17:35:29.268Z,3.30
2022-12-01T17:40:32.340Z,3.20
2022-12-01T17:45:35.234Z,3.10
2022-12-01T17:50:38.362Z,2.90
2022-12-01T17:55:41.071Z,2.80
2022-12-01T18:00:43.937Z,2.80
2022-12-01T18:05:57.198Z,2.70
2022-12-01T18:11:07.904Z,2.60
2022-12-01T18:16:18.483Z,2.40
2022-12-01T18:21:23.897Z,2.40
2022-12-01T18:26:29.661Z,2.30
2022-12-01T18:31:33.977Z,2.20
2022-12-01T18:36:39.989Z,2.20
2022-12-01T18:41:43.164Z,2.10
2022-12-01T18:46:46.764Z,2.10
2022-12-01T18:51:49.816Z,2.10
2022-12-01T18:56:53.332Z,2.00
2022-12-01T19:01:56.296Z,2.00
2022-12-01T19:06:59.183Z,2.10
2022-12-01T19:12:02.046Z,2.10
2022-12-01T19:17:04.947Z,2.10
2022-12-01T19:22:07.984Z,2.10
2022-12-01T19:27:10.870Z,2.10
2022-12-01T19:32:16.163Z,2.10
2022-12-01T19:37:20.049Z,2.10
2022-12-01T19:42:23.014Z,2.00
2022-12-01T19:47:25.844Z,2.00
2022-12-01T19:52:31.104Z,2.00
2022-12-01T19:57:34.089Z,1.90
2022-12-01T20:02:36.972Z,1.90
2022-12-01T20:07:40.359Z,1.90
2022-12-01T20:12:43.506Z,1.80
2022-12-01T20:17:46.541Z,1.80
2022-12-01T20:22:49.494Z,1.80
2022-12-01T20:27:52.828Z,1.70
2022-12-01T20:32:55.868Z,1.70
2022-12-01T20:37:58.871Z,1.60
2022-12-01T20:43:01.786Z,1.60
2022-12-01T20:48:05.040Z,1.50
2022-12-01T20:53:08.239Z,1.40
2022-12-01T20:58:11.768Z,1.30
2022-12-01T21:03:15.311Z,1.30
2022-12-01T21:08:18.572Z,1.20
2022-12-01T21:13:39.182Z,1.20
2022-12-01T21:19:00.365Z,1.10
2022-12-01T21:24:16.727Z,1.10
2022-12-01T21:29:27.828Z,1.00
2022-12-01T21:34:34.917Z,1.00
2022-12-01T21:39:39.263Z,0.90
2022-12-01T21:44:42.751Z,0.90
2022-12-01T21:49:47.710Z,0.80
2022-12-01T21:54:51.423Z,0.70
2022-12-01T22:00:08.681Z,0.70
2022-12-01T22:05:39.202Z,0.60
2022-12-01T22:11:06.454Z,0.50
2022-12-01T22:16:14.348Z,0.50
2022-12-01T22:21:23.647Z,0.40
2022-12-01T22:26:26.848Z,0.30
2022-12-01T22:31:31.451Z,0.30
2022-12-01T22:36:35.044Z,0.30
2022-12-01T22:41:38.144Z,0.20
2022-12-01T22:46:41.418Z,0.20
2022-12-01T22:51:58.245Z,0.20
2022-12-01T22:57:37.197Z,0.10
2022-12-01T23:02:40.107Z,0.20
2022-12-01T23:07:43.670Z,0.10
2022-12-01T23:12:50.269Z,0.10
2022-12-01T23:17:53.508Z,0.10
2022-12-01T23:22:59.459Z,0.20
2022-12-01T23:28:08.006Z,0.20
2022-12-01T23:33:13.715Z,0.30
2022-12-01T23:38:22.216Z,0.40
2022-12-01T23:43:29.821Z,0.60
2022-12-01T23:49:12.693Z,0.60
2022-12-01T23:54:28.232Z,0.70
2022-12-01T23:59:32.106Z,0.80
